createdAt,value
2022-09-03T00:01:50.906Z,65.19
2022-09-03T00:04:41.037Z,65.06
2022-09-03T00:07:22.884Z,65.22
2022-09-03T00:09:55.919Z,64.58
2022-09-03T00:12:24.941Z,64.60
2022-09-03T00:15:01.750Z,65.53
2022-09-03T00:17:42.415Z,65.28
2022-09-03T00:20:20.550Z,66.18
2022-09-03T00:22:55.810Z,65.33
2022-09-03T00:25:41.066Z,65.06
2022-09-03T00:28:14.779Z,64.18
2022-09-03T00:30:42.895Z,65.03
2022-09-03T00:33:15.671Z,65.77
2022-09-03T00:35:43.822Z,65.69
2022-09-03T00:38:11.188Z,65.83
2022-09-03T00:41:00.104Z,65.35
2022-09-03T00:43:56.266Z,65.06
2022-09-03T00:46:37.675Z,65.80
2022-09-03T00:49:14.288Z,65.73
2022-09-03T00:52:04.368Z,65.97
2022-09-03T00:54:56.838Z,65.49
2022-09-03T00:57:44.306Z,65.52
2022-09-03T01:00:15.531Z,66.30
2022-09-03T01:03:08.001Z,66.20
2022-09-03T01:06:01.847Z,66.18
2022-09-03T01:08:32.979Z,65.95
2022-09-03T01:11:05.396Z,65.60
2022-09-03T01:13:42.393Z,66.39
2022-09-03T01:16:30.342Z,66.55
2022-09-03T01:19:08.977Z,67.84
2022-09-03T01:22:21.136Z,67.75
2022-09-03T01:25:48.623Z,66.32
2022-09-03T01:28:22.077Z,67.37
2022-09-03T01:30:59.248Z,67.44
2022-09-03T01:34:06.014Z,67.14
2022-09-03T01:36:59.230Z,67.57
2022-09-03T01:39:43.904Z,66.83
2022-09-03T01:42:23.732Z,65.79
2022-09-03T01:45:22.628Z,66.28
2022-09-03T01:48:06.058Z,66.19
2022-09-03T01:50:43.242Z,66.83
2022-09-03T01:53:48.488Z,66.45
2022-09-03T01:56:28.221Z,67.41
2022-09-03T01:59:07.241Z,67.37
2022-09-03T02:02:06.983Z,67.51
2022-09-03T02:04:34.697Z,67.76
2022-09-03T02:07:03.269Z,67.70
2022-09-03T02:09:32.816Z,67.64
2022-09-03T02:12:06.455Z,67.84
2022-09-03T02:14:34.589Z,67.90
2022-09-03T02:17:02.319Z,67.52
2022-09-03T02:19:30.219Z,66.75
2022-09-03T02:21:58.532Z,67.16
2022-09-03T02:24:26.228Z,67.28
2022-09-03T02:26:54.031Z,67.80
2022-09-03T02:29:21.674Z,67.76
2022-09-03T02:31:49.039Z,67.33
2022-09-03T02:34:16.417Z,68.34
2022-09-03T02:36:46.350Z,68.70
2022-09-03T02:39:15.325Z,68.91
2022-09-03T02:41:42.724Z,68.26
2022-09-03T02:44:18.214Z,67.65
2022-09-03T02:47:00.343Z,67.74
2022-09-03T02:49:28.735Z,69.52
2022-09-03T02:52:09.436Z,68.98
2022-09-03T02:54:39.798Z,67.57
2022-09-03T02:57:11.771Z,67.65
2022-09-03T02:59:40.063Z,67.42
2022-09-03T03:02:07.870Z,68.24
2022-09-03T03:04:35.306Z,68.83
2022-09-03T03:07:03.011Z,67.54
2022-09-03T03:09:30.385Z,67.03
2022-09-03T03:11:57.776Z,67.29
2022-09-03T03:14:25.468Z,67.70
2022-09-03T03:16:52.927Z,68.66
2022-09-03T03:19:20.348Z,67.89
2022-09-03T03:21:48.008Z,67.25
2022-09-03T03:24:15.418Z,66.62
2022-09-03T03:26:42.763Z,66.58
2022-09-03T03:29:14.866Z,67.08
2022-09-03T03:31:42.256Z,68.48
2022-09-03T03:34:09.929Z,69.00
2022-09-03T03:36:37.687Z,68.85
2022-09-03T03:39:05.097Z,67.66
2022-09-03T03:41:34.317Z,67.13
2022-09-03T03:44:08.224Z,67.36
2022-09-03T03:46:37.741Z,67.62
2022-09-03T03:49:08.917Z,66.97
2022-09-03T03:51:38.010Z,65.62
2022-09-03T03:54:05.867Z,66.46
2022-09-03T03:56:34.681Z,66.68
2022-09-03T03:59:03.022Z,67.08
2022-09-03T04:01:30.466Z,66.68
2022-09-03T04:04:00.200Z,67.38
2022-09-03T04:06:28.260Z,66.14
2022-09-03T04:08:55.905Z,66.68
2022-09-03T04:11:24.402Z,66.94
2022-09-03T04:13:52.184Z,66.76
2022-09-03T04:16:22.111Z,68.68
2022-09-03T04:18:50.118Z,69.08
2022-09-03T04:21:20.519Z,67.83
2022-09-03T04:23:49.450Z,67.24
2022-09-03T04:26:19.244Z,67.61
2022-09-03T04:28:46.991Z,67.96
2022-09-03T04:31:16.707Z,68.40
2022-09-03T04:33:44.617Z,68.87
2022-09-03T04:36:14.537Z,69.87
2022-09-03T04:38:43.955Z,70.08
2022-09-03T04:41:14.361Z,69.60
2022-09-03T04:43:43.432Z,68.97
2022-09-03T04:46:16.291Z,67.96
2022-09-03T04:48:44.116Z,66.83
2022-09-03T04:51:14.805Z,65.99
2022-09-03T04:53:47.202Z,65.67
2022-09-03T04:56:23.018Z,64.82
2022-09-03T04:58:55.362Z,65.33
2022-09-03T05:01:25.133Z,65.78
2022-09-03T05:03:52.650Z,63.25
2022-09-03T05:06:20.427Z,62.82
2022-09-03T05:08:49.110Z,62.16
2022-09-03T05:11:17.870Z,61.56
2022-09-03T05:13:49.400Z,61.68
2022-09-03T05:16:17.869Z,61.70
2022-09-03T05:18:46.001Z,60.78
2022-09-03T05:21:15.465Z,61.13
2022-09-03T05:23:45.525Z,59.68
2022-09-03T05:26:17.576Z,60.72
2022-09-03T05:28:46.063Z,61.54
2022-09-03T05:31:15.863Z,60.78
2022-09-03T05:33:48.398Z,59.67
2022-09-03T05:36:18.972Z,58.50
2022-09-03T05:38:47.536Z,58.03
2022-09-03T05:41:16.238Z,57.20
2022-09-03T05:43:52.050Z,56.44
2022-09-03T05:46:20.086Z,56.51
2022-09-03T05:48:47.732Z,56.59
2022-09-03T05:51:16.963Z,55.59
2022-09-03T05:53:46.226Z,55.27
2022-09-03T05:56:19.271Z,55.68
2022-09-03T05:58:48.641Z,58.22
2022-09-03T06:04:29.324Z,60.28
2022-09-03T06:06:57.018Z,57.52
2022-09-03T06:09:24.427Z,59.62
2022-09-03T06:11:52.600Z,56.64
2022-09-03T06:14:20.697Z,58.83
2022-09-03T06:16:49.721Z,58.62
2022-09-03T06:19:17.459Z,57.72
2022-09-03T06:21:46.450Z,56.83
2022-09-03T06:24:19.291Z,55.82
2022-09-03T06:26:48.137Z,55.32
2022-09-03T06:29:15.735Z,52.98
2022-09-03T06:31:44.254Z,54.01
2022-09-03T06:34:12.524Z,52.21
2022-09-03T06:36:41.422Z,53.89
2022-09-03T06:39:08.849Z,52.58
2022-09-03T06:41:36.538Z,50.63
2022-09-03T06:44:11.644Z,51.68
2022-09-03T06:46:42.548Z,48.63
2022-09-03T06:49:11.213Z,49.86
2022-09-03T06:51:39.225Z,49.13
2022-09-03T06:54:08.616Z,49.75
2022-09-03T06:56:40.335Z,50.24
2022-09-03T06:59:13.772Z,51.18
2022-09-03T07:01:44.469Z,47.53
2022-09-03T07:04:16.101Z,52.91
2022-09-03T07:06:44.393Z,52.76
2022-09-03T07:09:13.456Z,49.60
2022-09-03T07:11:47.474Z,47.21
2022-09-03T07:14:17.920Z,46.55
2022-09-03T07:16:46.334Z,46.57
2022-09-03T07:19:14.090Z,45.16
2022-09-03T07:21:46.729Z,45.41
2022-09-03T07:24:18.107Z,44.27
2022-09-03T07:26:47.319Z,44.75
2022-09-03T07:29:16.138Z,46.42
2022-09-03T07:31:44.217Z,45.85
2022-09-03T07:34:13.207Z,44.85
2022-09-03T07:36:43.052Z,44.85
2022-09-03T07:39:11.868Z,45.38
2022-09-03T07:41:45.844Z,44.85
2022-09-03T07:44:15.408Z,44.91
2022-09-03T07:46:45.481Z,46.55
2022-09-03T07:49:13.418Z,46.65
2022-09-03T07:51:40.865Z,42.94
2022-09-03T07:54:10.987Z,43.58
2022-09-03T07:56:40.127Z,46.32
2022-09-03T07:59:08.507Z,46.45
2022-09-03T08:01:37.264Z,43.30
2022-09-03T08:04:07.077Z,45.22
2022-09-03T08:06:38.084Z,44.96
2022-09-03T08:09:08.115Z,44.71
2022-09-03T08:11:40.561Z,45.75
2022-09-03T08:14:10.070Z,46.16
2022-09-03T08:16:41.869Z,45.65
2022-09-03T08:19:11.310Z,46.34
2022-09-03T08:21:41.848Z,45.00
2022-09-03T08:24:11.155Z,45.64
2022-09-03T08:26:41.723Z,44.09
2022-09-03T08:29:09.681Z,44.45
2022-09-03T08:31:38.281Z,44.34
2022-09-03T08:34:07.307Z,45.15
2022-09-03T08:36:37.426Z,44.75
2022-09-03T08:39:10.273Z,45.54
2022-09-03T08:41:53.544Z,43.51
2022-09-03T08:44:47.387Z,44.01
2022-09-03T08:47:21.095Z,43.01
2022-09-03T08:49:58.874Z,43.02
2022-09-03T08:52:50.001Z,42.41
2022-09-03T08:55:23.138Z,42.84
2022-09-03T08:57:55.280Z,42.88
2022-09-03T09:00:22.673Z,40.91
2022-09-03T09:03:28.880Z,44.72
2022-09-03T09:06:07.219Z,44.03
2022-09-03T09:08:46.298Z,45.88
2022-09-03T09:11:39.787Z,43.83
2022-09-03T09:14:20.770Z,42.97
2022-09-03T09:17:17.681Z,43.09
2022-09-03T09:20:26.732Z,42.50
2022-09-03T09:23:06.723Z,41.77
2022-09-03T09:25:39.428Z,40.04
2022-09-03T09:28:17.023Z,39.87
2022-09-03T09:30:50.614Z,39.42
2022-09-03T09:33:20.254Z,40.70
2022-09-03T09:35:48.451Z,41.11
2022-09-03T09:38:16.450Z,40.19
2022-09-03T09:40:45.687Z,41.83
2022-09-03T09:43:20.089Z,41.62
2022-09-03T09:45:49.880Z,41.93
2022-09-03T09:48:31.457Z,42.95
2022-09-03T09:51:07.493Z,40.18
2022-09-03T09:53:35.208Z,39.89
2022-09-03T09:56:05.713Z,40.58
2022-09-03T09:58:34.507Z,40.48
2022-09-03T10:01:13.143Z,41.09
2022-09-03T10:03:55.636Z,38.21
2022-09-03T10:06:46.688Z,39.37
2022-09-03T10:09:19.301Z,38.65
2022-09-03T10:11:57.186Z,37.63
2022-09-03T10:14:35.136Z,37.74
2022-09-03T10:17:10.789Z,40.76
2022-09-03T10:20:14.766Z,40.64
2022-09-03T10:22:56.611Z,40.21
2022-09-03T10:25:43.817Z,40.55
2022-09-03T10:28:13.354Z,41.49
2022-09-03T10:30:52.142Z,41.38
2022-09-03T10:33:44.701Z,39.80
2022-09-03T10:36:20.126Z,39.12
2022-09-03T10:38:53.822Z,38.43
2022-09-03T10:41:28.858Z,38.54
2022-09-03T10:44:15.521Z,36.61
2022-09-03T10:47:01.434Z,36.22
2022-09-03T10:49:53.219Z,38.88
2022-09-03T10:52:23.707Z,37.63
2022-09-03T10:55:10.178Z,36.93
2022-09-03T10:58:08.009Z,37.17
2022-09-03T11:00:39.966Z,38.99
2022-09-03T11:03:30.908Z,37.34
2022-09-03T11:06:04.937Z,36.61
2022-09-03T11:08:43.087Z,34.16
2022-09-03T11:11:21.710Z,35.31
2022-09-03T11:14:10.473Z,33.79
2022-09-03T11:16:45.624Z,35.09
2022-09-03T11:19:16.853Z,32.57
2022-09-03T11:21:44.584Z,33.84
2022-09-03T11:24:22.127Z,35.53
2022-09-03T11:27:01.186Z,33.49
2022-09-03T11:29:38.182Z,32.40
2022-09-03T11:32:10.923Z,33.56
2022-09-03T11:34:49.658Z,32.29
2022-09-03T11:37:26.073Z,31.12
2022-09-03T11:40:16.979Z,31.23
2022-09-03T11:42:45.144Z,32.48
2022-09-03T11:45:26.707Z,32.82
2022-09-03T11:47:54.652Z,33.16
2022-09-03T11:50:23.518Z,34.06
2022-09-03T11:52:53.572Z,32.24
2022-09-03T11:55:48.084Z,32.60
2022-09-03T11:58:32.902Z,33.45
2022-09-03T12:01:03.022Z,34.41
2022-09-03T12:03:59.916Z,34.67
2022-09-03T12:06:59.122Z,32.50
2022-09-03T12:10:02.092Z,35.48
2022-09-03T12:12:47.884Z,34.80
2022-09-03T12:15:38.535Z,32.41
2022-09-03T12:18:20.429Z,32.29
2022-09-03T12:21:00.004Z,33.34
2022-09-03T12:23:45.589Z,33.51
2022-09-03T12:26:25.998Z,31.97
2022-09-03T12:28:57.835Z,32.52
2022-09-03T12:31:30.352Z,32.63
2022-09-03T12:34:10.761Z,33.15
2022-09-03T12:36:43.609Z,32.76
2022-09-03T12:39:13.589Z,32.61
2022-09-03T12:42:01.291Z,34.26
2022-09-03T12:44:38.283Z,33.58
2022-09-03T12:50:11.238Z,35.40
2022-09-03T12:52:59.390Z,34.05
2022-09-03T12:55:29.840Z,33.91
2022-09-03T12:58:09.301Z,34.66
2022-09-03T13:00:46.932Z,34.77
2022-09-03T13:03:18.866Z,35.31
2022-09-03T13:05:51.263Z,34.00
2022-09-03T13:08:22.181Z,33.74
2022-09-03T13:10:56.420Z,35.76
2022-09-03T13:13:29.612Z,36.72
2022-09-03T13:16:09.113Z,35.39
2022-09-03T13:18:42.511Z,35.42
2022-09-03T13:21:21.171Z,35.12
2022-09-03T13:24:16.302Z,35.98
2022-09-03T13:27:17.815Z,33.52
2022-09-03T13:29:55.429Z,34.10
2022-09-03T13:32:35.640Z,33.29
2022-09-03T13:35:12.974Z,33.63
2022-09-03T13:37:54.197Z,32.98
2022-09-03T13:40:33.242Z,33.85
2022-09-03T13:43:24.926Z,34.29
2022-09-03T13:45:58.664Z,35.12
2022-09-03T13:48:53.441Z,34.41
2022-09-03T13:51:29.877Z,34.10
2022-09-03T13:54:31.164Z,34.20
2022-09-03T13:57:30.565Z,35.64
2022-09-03T14:00:10.749Z,35.91
2022-09-03T14:03:06.962Z,34.28
2022-09-03T14:05:56.388Z,35.15
2022-09-03T14:08:28.965Z,34.36
2022-09-03T14:10:58.931Z,34.68
2022-09-03T14:14:08.105Z,34.70
2022-09-03T14:16:35.432Z,34.48
2022-09-03T14:19:33.090Z,33.59
2022-09-03T14:22:06.469Z,34.88
2022-09-03T14:24:46.312Z,35.87
2022-09-03T14:27:13.704Z,33.55
2022-09-03T14:29:51.655Z,33.70
2022-09-03T14:32:27.586Z,32.92
2022-09-03T14:35:19.718Z,33.49
2022-09-03T14:38:16.236Z,33.26
2022-09-03T14:41:10.267Z,34.42
2022-09-03T14:43:52.261Z,33.87
2022-09-03T14:46:57.178Z,32.62
2022-09-03T14:49:43.603Z,32.54
2022-09-03T14:52:20.527Z,31.34
2022-09-03T14:55:20.153Z,31.46
2022-09-03T14:58:34.011Z,33.75
2022-09-03T15:01:06.347Z,32.59
2022-09-03T15:03:33.937Z,33.17
2022-09-03T15:06:30.728Z,32.25
2022-09-03T15:09:15.466Z,32.97
2022-09-03T15:12:11.017Z,33.26
2022-09-03T15:14:56.718Z,33.35
2022-09-03T15:17:36.398Z,34.60
2022-09-03T15:20:36.164Z,34.25
2022-09-03T15:23:14.565Z,34.26
2022-09-03T15:26:06.151Z,35.14
2022-09-03T15:29:11.615Z,33.73
2022-09-03T15:32:00.469Z,33.42
2022-09-03T15:34:52.284Z,34.88
2022-09-03T15:37:30.483Z,32.96
2022-09-03T15:40:03.414Z,33.89
2022-09-03T15:42:31.869Z,33.04
2022-09-03T15:45:21.793Z,33.92
2022-09-03T15:47:56.548Z,33.77
2022-09-03T15:50:48.091Z,34.70
2022-09-03T15:53:31.823Z,34.20
2022-09-03T15:56:13.937Z,35.47
2022-09-03T15:58:58.496Z,35.37
2022-09-03T16:01:32.414Z,33.76
2022-09-03T16:04:09.740Z,33.30
2022-09-03T16:06:50.807Z,33.30
2022-09-03T16:10:22.802Z,35.25
2022-09-03T16:12:45.597Z,36.42
2022-09-03T16:15:17.235Z,36.62
2022-09-03T16:18:27.308Z,36.16
2022-09-03T16:21:15.402Z,36.56
2022-09-03T16:24:07.769Z,37.73
2022-09-03T16:26:41.289Z,36.46
2022-09-03T16:29:12.609Z,35.97
2022-09-03T16:32:02.232Z,37.93
2022-09-03T16:34:40.638Z,37.67
2022-09-03T16:37:29.175Z,37.44
2022-09-03T16:40:24.447Z,37.56
2022-09-03T16:43:18.128Z,37.44
2022-09-03T16:46:05.833Z,37.53
2022-09-03T16:48:54.875Z,38.12
2022-09-03T16:51:43.633Z,38.30
2022-09-03T16:54:44.100Z,39.50
2022-09-03T16:57:45.948Z,39.30
2022-09-03T17:00:16.118Z,39.55
2022-09-03T17:03:04.244Z,40.56
2022-09-03T17:05:35.002Z,40.64
2022-09-03T17:08:24.658Z,40.82
2022-09-03T17:11:04.303Z,41.21
2022-09-03T17:13:49.786Z,41.71
2022-09-03T17:16:48.384Z,42.08
2022-09-03T17:19:37.605Z,42.32
2022-09-03T17:22:34.174Z,43.01
2022-09-03T17:25:07.849Z,42.75
2022-09-03T17:27:47.564Z,43.50
2022-09-03T17:30:24.097Z,43.09
2022-09-03T17:33:06.955Z,43.59
2022-09-03T17:35:49.299Z,43.60
2022-09-03T17:38:38.813Z,44.47
2022-09-03T17:41:06.138Z,44.93
2022-09-03T17:43:48.990Z,45.50
2022-09-03T17:46:28.649Z,45.31
2022-09-03T17:49:00.463Z,45.48
2022-09-03T17:51:31.883Z,45.57
2022-09-03T17:54:32.722Z,46.15
2022-09-03T17:57:13.520Z,46.56
2022-09-03T17:59:46.182Z,46.49
2022-09-03T18:02:33.563Z,46.87
2022-09-03T18:05:04.563Z,47.71
2022-09-03T18:07:44.124Z,47.49
2022-09-03T18:10:14.625Z,48.11
2022-09-03T18:13:04.037Z,48.24
2022-09-03T18:16:01.136Z,49.10
2022-09-03T18:18:30.434Z,48.65
2022-09-03T18:21:26.357Z,49.90
2022-09-03T18:24:53.689Z,50.58
2022-09-03T18:27:47.004Z,50.55
2022-09-03T18:30:34.080Z,50.41
2022-09-03T18:33:20.564Z,50.30
2022-09-03T18:36:06.785Z,50.80
2022-09-03T18:38:55.655Z,50.12
2022-09-03T18:42:10.194Z,49.85
2022-09-03T18:45:23.338Z,50.77
2022-09-03T18:48:27.144Z,51.53
2022-09-03T18:51:39.685Z,52.52
2022-09-03T18:54:50.574Z,52.28
2022-09-03T18:57:46.253Z,52.57
2022-09-03T19:00:33.649Z,52.44
2022-09-03T19:03:30.247Z,53.14
2022-09-03T19:06:25.756Z,53.20
2022-09-03T19:09:34.269Z,53.44
2022-09-03T19:12:51.772Z,53.91
2022-09-03T19:16:19.094Z,53.78
2022-09-03T19:19:13.991Z,54.53
2022-09-03T19:22:13.015Z,53.89
2022-09-03T19:24:59.240Z,54.67
2022-09-03T19:27:59.885Z,54.82
2022-09-03T19:31:09.789Z,54.92
2022-09-03T19:37:36.457Z,55.35
2022-09-03T19:40:53.537Z,55.23
2022-09-03T19:43:48.697Z,55.37
2022-09-03T19:46:47.079Z,55.91
2022-09-03T19:49:50.517Z,56.19
2022-09-03T19:52:43.260Z,57.21
2022-09-03T19:55:41.189Z,56.92
2022-09-03T19:58:42.470Z,58.10
2022-09-03T20:01:30.098Z,57.31
2022-09-03T20:04:19.576Z,57.34
2022-09-03T20:07:06.527Z,58.20
2022-09-03T20:09:57.453Z,57.25
2022-09-03T20:12:26.919Z,57.61
2022-09-03T20:14:54.702Z,58.03
2022-09-03T20:17:39.310Z,59.19
2022-09-03T20:20:18.750Z,59.23
2022-09-03T20:23:22.102Z,58.78
2022-09-03T20:26:02.142Z,58.43
2022-09-03T20:28:54.770Z,58.95
2022-09-03T20:31:28.560Z,58.76
2022-09-03T20:34:08.227Z,59.04
2022-09-03T20:36:55.597Z,58.91
2022-09-03T20:39:36.948Z,59.81
2022-09-03T20:42:10.329Z,60.81
2022-09-03T20:44:59.797Z,61.37
2022-09-03T20:47:39.974Z,61.22
2022-09-03T20:50:13.150Z,60.90
2022-09-03T20:53:02.005Z,61.30
2022-09-03T20:55:34.686Z,64.97
2022-09-03T20:58:30.212Z,61.69
2022-09-03T21:01:09.494Z,62.27
2022-09-03T21:04:07.436Z,61.26
2022-09-03T21:06:41.443Z,61.03
2022-09-03T21:09:33.927Z,60.98
2022-09-03T21:12:15.784Z,61.25
2022-09-03T21:15:03.132Z,62.73
2022-09-03T21:17:42.738Z,61.92
2022-09-03T21:20:25.628Z,64.39
2022-09-03T21:23:14.668Z,63.93
2022-09-03T21:25:51.718Z,64.61
2022-09-03T21:28:38.537Z,63.13
2022-09-03T21:31:20.202Z,64.54
2022-09-03T21:33:50.232Z,64.38
2022-09-03T21:36:30.205Z,62.79
2022-09-03T21:39:01.475Z,64.01
2022-09-03T21:41:45.288Z,63.20
2022-09-03T21:44:20.818Z,63.62
2022-09-03T21:46:54.241Z,62.86
2022-09-03T21:49:39.624Z,64.26
2022-09-03T21:52:17.801Z,64.36
2022-09-03T21:54:45.190Z,63.41
2022-09-03T21:57:31.093Z,64.63
2022-09-03T22:00:21.818Z,63.70
2022-09-03T22:02:50.002Z,63.50
2022-09-03T22:05:18.533Z,63.10
2022-09-03T22:07:54.792Z,62.85
2022-09-03T22:11:03.858Z,63.04
2022-09-03T22:13:58.987Z,63.65
2022-09-03T22:16:30.315Z,64.03
2022-09-03T22:18:58.669Z,62.68
2022-09-03T22:21:37.084Z,62.72
2022-09-03T22:24:24.622Z,62.81
2022-09-03T22:27:22.991Z,62.65
2022-09-03T22:29:59.827Z,64.26
2022-09-03T22:32:53.367Z,65.65
2022-09-03T22:35:36.794Z,65.39
2022-09-03T22:38:16.533Z,65.62
2022-09-03T22:40:49.129Z,63.93
2022-09-03T22:43:38.422Z,64.59
2022-09-03T22:46:18.709Z,64.56
2022-09-03T22:49:21.033Z,63.74
2022-09-03T22:52:00.841Z,63.68
2022-09-03T22:54:46.673Z,64.13
2022-09-03T22:57:16.405Z,63.90
2022-09-03T22:59:58.894Z,63.41
2022-09-03T23:02:28.795Z,63.64
2022-09-03T23:05:02.207Z,63.69
2022-09-03T23:07:59.391Z,64.15
2022-09-03T23:10:31.284Z,64.87
2022-09-03T23:13:14.606Z,64.48
2022-09-03T23:15:42.550Z,65.04
2022-09-03T23:18:17.586Z,64.15
2022-09-03T23:20:55.307Z,65.12
2022-09-03T23:23:29.460Z,65.49
2022-09-03T23:26:10.133Z,64.54
2022-09-03T23:28:38.373Z,66.38
2022-09-03T23:31:22.186Z,66.30
2022-09-03T23:33:52.222Z,65.91
2022-09-03T23:37:01.309Z,65.74
2022-09-03T23:39:42.380Z,66.60
2022-09-03T23:42:33.663Z,65.30
2022-09-03T23:45:15.892Z,65.63
2022-09-03T23:48:07.245Z,66.01
2022-09-03T23:50:58.461Z,65.79
2022-09-03T23:53:36.574Z,64.64
2022-09-03T23:56:22.487Z,64.76
2022-09-03T23:59:14.425Z,65.71
